createdAt,value
2019-04-20T00:00:42.930Z,56.50
2019-04-20T00:02:51.131Z,57.50
2019-04-20T00:04:53.253Z,57.40
2019-04-20T00:06:59.210Z,58.90
2019-04-20T00:09:12.070Z,58.70
2019-04-20T00:11:22.706Z,57.80
2019-04-20T00:13:30.894Z,58.50
2019-04-20T00:15:28.692Z,58.60
2019-04-20T00:17:34.782Z,60.00
2019-04-20T00:19:45.382Z,59.40
2019-04-20T00:21:57.758Z,59.80
2019-04-20T00:24:01.094Z,58.90
2019-04-20T00:26:32.243Z,61.00
2019-04-20T00:28:55.868Z,61.30
2019-04-20T00:31:05.578Z,62.10
2019-04-20T00:33:01.751Z,62.10
2019-04-20T00:35:00.545Z,62.20
2019-04-20T00:37:07.006Z,62.40
2019-04-20T00:39:15.103Z,62.60
2019-04-20T00:41:21.243Z,63.40
2019-04-20T00:43:32.464Z,62.50
2019-04-20T00:45:41.383Z,61.90
2019-04-20T00:47:50.875Z,62.50
2019-04-20T00:50:03.803Z,63.10
2019-04-20T00:52:23.722Z,63.80
2019-04-20T00:54:04.317Z,64.50
2019-04-20T00:56:11.879Z,64.70
2019-04-20T00:58:27.061Z,65.00
2019-04-20T01:00:43.513Z,64.40
2019-04-20T01:02:43.359Z,64.30
2019-04-20T01:04:58.039Z,64.80
2019-04-20T01:07:05.625Z,65.10
2019-04-20T01:09:18.278Z,65.40
2019-04-20T01:11:31.786Z,65.30
2019-04-20T01:13:31.762Z,65.00
2019-04-20T01:15:50.237Z,65.90
2019-04-20T01:17:44.717Z,65.90
2019-04-20T01:19:52.722Z,65.90
2019-04-20T01:22:03.646Z,66.30
2019-04-20T01:24:08.015Z,66.90
2019-04-20T01:26:17.184Z,67.50
2019-04-20T01:28:35.577Z,67.30
2019-04-20T01:30:35.304Z,68.40
2019-04-20T01:32:52.596Z,67.60
2019-04-20T01:34:54.341Z,67.60
2019-04-20T01:37:04.508Z,67.30
2019-04-20T01:39:07.547Z,68.00
2019-04-20T01:41:03.391Z,68.90
2019-04-20T01:43:09.989Z,69.70
2019-04-20T01:45:24.734Z,69.80
2019-04-20T01:47:30.322Z,70.70
2019-04-20T01:49:33.538Z,71.10
2019-04-20T01:51:46.968Z,71.00
2019-04-20T01:54:02.093Z,71.30
2019-04-20T01:56:15.302Z,71.40
2019-04-20T01:58:23.931Z,71.60
2019-04-20T02:00:25.308Z,71.80
2019-04-20T02:02:30.065Z,72.30
2019-04-20T02:04:45.934Z,71.80
2019-04-20T02:06:53.207Z,71.80
2019-04-20T02:08:59.173Z,72.00
2019-04-20T02:11:05.779Z,71.80
2019-04-20T02:13:11.187Z,71.80
2019-04-20T02:15:23.203Z,71.50
2019-04-20T02:17:33.390Z,71.50
2019-04-20T02:19:49.241Z,71.60
2019-04-20T02:22:04.084Z,71.80
2019-04-20T02:24:01.279Z,71.60
2019-04-20T02:26:05.177Z,71.20
2019-04-20T02:28:27.708Z,71.30
2019-04-20T02:30:59.053Z,71.50
2019-04-20T02:33:09.459Z,71.70
2019-04-20T02:35:16.024Z,72.10
2019-04-20T02:41:51.101Z,73.80
2019-04-20T02:44:06.537Z,74.00
2019-04-20T02:45:57.515Z,73.50
2019-04-20T02:48:14.062Z,72.70
2019-04-20T02:52:28.677Z,73.30
2019-04-20T02:58:54.520Z,75.00
2019-04-20T03:00:48.522Z,76.00
2019-04-20T03:02:42.985Z,76.40
2019-04-20T03:04:45.917Z,76.70
2019-04-20T03:07:04.095Z,76.90
2019-04-20T03:09:15.499Z,77.30
2019-04-20T03:11:21.097Z,77.50
2019-04-20T03:13:32.518Z,77.80
2019-04-20T03:15:37.567Z,78.70
2019-04-20T03:17:45.786Z,79.30
2019-04-20T03:19:46.356Z,79.70
2019-04-20T03:22:03.785Z,79.80
2019-04-20T03:24:16.067Z,79.40
2019-04-20T03:26:17.609Z,79.00
2019-04-20T03:28:23.640Z,78.90
2019-04-20T03:31:15.652Z,79.70
2019-04-20T03:33:02.158Z,80.00
2019-04-20T03:39:03.707Z,79.90
2019-04-20T03:41:05.118Z,80.00
2019-04-20T03:42:59.337Z,79.80
2019-04-20T03:45:12.211Z,80.20
2019-04-20T03:47:26.609Z,80.80
2019-04-20T03:49:48.273Z,81.30
2019-04-20T03:51:47.256Z,81.30
2019-04-20T03:54:08.524Z,81.20
2019-04-20T03:56:28.324Z,81.10
2019-04-20T03:58:28.967Z,80.90
2019-04-20T04:00:55.460Z,81.00
2019-04-20T04:03:41.248Z,81.20
2019-04-20T04:05:27.452Z,81.30
2019-04-20T04:07:26.628Z,81.30
2019-04-20T04:09:34.101Z,80.90
2019-04-20T04:11:46.097Z,81.20
2019-04-20T04:13:38.067Z,81.60
2019-04-20T04:15:51.959Z,81.50
2019-04-20T04:17:52.978Z,81.40
2019-04-20T04:20:05.109Z,81.20
2019-04-20T04:22:20.377Z,81.10
2019-04-20T04:24:26.091Z,81.00
2019-04-20T04:26:37.437Z,80.90
2019-04-20T04:28:44.800Z,80.50
2019-04-20T04:30:56.301Z,80.50
2019-04-20T04:33:27.113Z,81.40
2019-04-20T04:35:05.277Z,80.60
2019-04-20T04:37:17.915Z,80.80
2019-04-20T04:39:27.987Z,81.00
2019-04-20T04:41:38.036Z,81.10
2019-04-20T04:43:38.961Z,81.20
2019-04-20T04:45:30.085Z,81.20
2019-04-20T04:47:34.602Z,81.10
2019-04-20T04:49:44.356Z,81.10
2019-04-20T04:51:55.521Z,80.80
2019-04-20T04:54:01.778Z,80.10
2019-04-20T04:56:07.297Z,79.50
2019-04-20T04:58:09.081Z,79.20
2019-04-20T05:00:17.851Z,78.90
2019-04-20T05:02:29.890Z,78.50
2019-04-20T05:05:11.741Z,78.50
2019-04-20T05:07:07.510Z,78.30
2019-04-20T05:09:09.888Z,78.80
2019-04-20T05:11:13.163Z,78.30
2019-04-20T05:13:19.932Z,77.50
2019-04-20T05:15:40.454Z,76.30
2019-04-20T05:17:52.745Z,76.10
2019-04-20T05:19:58.337Z,75.10
2019-04-20T05:22:09.818Z,75.70
2019-04-20T05:24:27.570Z,75.30
2019-04-20T05:26:44.580Z,75.10
2019-04-20T05:28:46.822Z,75.50
2019-04-20T05:30:48.652Z,74.90
2019-04-20T05:32:59.060Z,75.30
2019-04-20T05:35:21.519Z,75.00
2019-04-20T05:37:33.373Z,74.90
2019-04-20T05:39:32.671Z,74.60
2019-04-20T05:41:38.319Z,74.30
2019-04-20T05:43:41.231Z,74.40
2019-04-20T05:45:51.589Z,73.40
2019-04-20T05:48:02.498Z,71.80
2019-04-20T05:50:05.953Z,70.30
2019-04-20T05:52:29.391Z,69.20
2019-04-20T05:54:28.221Z,67.80
2019-04-20T05:56:35.848Z,68.60
2019-04-20T05:58:41.956Z,66.50
2019-04-20T06:00:55.345Z,64.60
2019-04-20T06:02:54.046Z,61.90
2019-04-20T06:05:05.398Z,60.70
2019-04-20T06:07:11.271Z,57.50
2019-04-20T06:11:30.010Z,51.80
2019-04-20T06:13:33.295Z,49.10
2019-04-20T06:16:01.000Z,47.10
2019-04-20T06:18:13.264Z,46.50
2019-04-20T06:20:19.732Z,49.20
2019-04-20T06:22:36.524Z,49.60
2019-04-20T06:24:57.290Z,48.90
2019-04-20T06:26:53.669Z,50.20
2019-04-20T06:28:51.863Z,49.80
2019-04-20T06:30:56.926Z,49.40
2019-04-20T06:34:08.877Z,48.00
2019-04-20T06:36:18.818Z,45.00
2019-04-20T06:38:10.718Z,46.20
2019-04-20T06:40:30.703Z,45.80
2019-04-20T06:42:30.246Z,44.20
2019-04-20T06:46:36.236Z,43.30
2019-04-20T06:48:47.105Z,43.10
2019-04-20T06:50:44.535Z,43.40
2019-04-20T06:53:20.935Z,42.40
2019-04-20T06:55:14.150Z,41.80
2019-04-20T06:57:29.232Z,42.20
2019-04-20T06:59:38.733Z,39.90
2019-04-20T07:01:50.033Z,37.40
2019-04-20T07:06:16.865Z,33.60
2019-04-20T07:08:15.576Z,35.40
2019-04-20T07:10:13.331Z,37.20
2019-04-20T07:12:16.829Z,35.70
2019-04-20T07:14:11.127Z,34.60
2019-04-20T07:16:53.107Z,34.50
2019-04-20T07:19:16.896Z,34.10
2019-04-20T07:21:37.325Z,35.80
2019-04-20T07:23:32.752Z,34.40
2019-04-20T07:25:38.776Z,35.30
2019-04-20T07:27:47.922Z,34.80
2019-04-20T07:29:58.848Z,33.40
2019-04-20T07:31:53.973Z,33.20
2019-04-20T07:34:11.796Z,34.20
2019-04-20T07:36:19.874Z,34.20
2019-04-20T07:38:32.931Z,32.40
2019-04-20T07:40:50.627Z,33.60
2019-04-20T07:45:07.432Z,33.20
2019-04-20T07:47:15.186Z,33.40
2019-04-20T07:49:19.273Z,32.20
2019-04-20T07:51:14.490Z,33.20
2019-04-20T07:53:30.664Z,33.30
2019-04-20T07:57:45.959Z,34.10
2019-04-20T07:59:55.857Z,33.10
2019-04-20T08:02:08.145Z,32.90
2019-04-20T08:04:17.432Z,33.50
2019-04-20T08:06:18.335Z,34.90
2019-04-20T08:08:34.814Z,33.90
2019-04-20T08:10:47.494Z,34.40
2019-04-20T08:15:03.555Z,35.10
2019-04-20T08:17:29.052Z,32.40
2019-04-20T08:19:12.225Z,33.00
2019-04-20T08:21:23.385Z,33.40
2019-04-20T08:23:29.850Z,34.50
2019-04-20T08:25:27.806Z,32.90
2019-04-20T08:27:27.831Z,34.10
2019-04-20T08:29:48.397Z,34.30
2019-04-20T08:32:04.368Z,32.00
2019-04-20T08:34:18.569Z,31.40
2019-04-20T08:36:22.791Z,32.90
2019-04-20T08:40:41.836Z,33.50
2019-04-20T08:42:57.250Z,33.20
2019-04-20T08:45:00.130Z,31.30
2019-04-20T08:49:10.347Z,30.90
2019-04-20T08:51:13.804Z,31.00
2019-04-20T08:53:27.555Z,30.40
2019-04-20T08:55:29.781Z,30.20
2019-04-20T08:57:20.006Z,29.90
2019-04-20T08:59:25.685Z,29.30
2019-04-20T09:01:34.886Z,29.50
2019-04-20T09:03:51.547Z,30.10
2019-04-20T09:05:55.266Z,30.00
2019-04-20T09:08:02.575Z,28.40
2019-04-20T09:10:24.394Z,28.10
2019-04-20T09:12:30.539Z,28.60
2019-04-20T09:14:18.758Z,29.50
2019-04-20T09:16:30.565Z,29.30
2019-04-20T09:18:43.251Z,29.60
2019-04-20T09:20:52.861Z,29.00
2019-04-20T09:23:14.574Z,26.20
2019-04-20T09:25:44.428Z,27.00
2019-04-20T09:27:24.545Z,26.30
2019-04-20T09:29:35.291Z,26.20
2019-04-20T09:31:46.078Z,25.80
2019-04-20T09:33:57.084Z,27.00
2019-04-20T09:36:02.266Z,26.10
2019-04-20T09:38:11.788Z,26.40
2019-04-20T09:40:21.201Z,27.10
2019-04-20T09:42:22.130Z,27.20
2019-04-20T09:44:33.680Z,28.00
2019-04-20T09:46:40.348Z,27.80
2019-04-20T09:48:50.525Z,27.70
2019-04-20T09:51:13.482Z,27.40
2019-04-20T09:53:10.185Z,27.50
2019-04-20T09:55:18.529Z,27.60
2019-04-20T09:57:33.547Z,26.70
2019-04-20T09:59:40.097Z,27.00
2019-04-20T10:01:36.494Z,27.70
2019-04-20T10:03:34.996Z,27.90
2019-04-20T10:05:41.201Z,29.20
2019-04-20T10:07:49.332Z,29.00
2019-04-20T10:09:54.195Z,28.50
2019-04-20T10:11:59.801Z,27.90
2019-04-20T10:14:06.663Z,28.20
2019-04-20T10:16:13.470Z,29.10
2019-04-20T10:18:19.736Z,29.80
2019-04-20T10:20:31.304Z,28.10
2019-04-20T10:22:32.933Z,28.90
2019-04-20T10:24:38.881Z,29.10
2019-04-20T10:26:44.949Z,27.90
2019-04-20T10:28:51.817Z,27.40
2019-04-20T10:30:58.833Z,28.30
2019-04-20T10:33:05.789Z,28.70
2019-04-20T10:35:15.006Z,28.70
2019-04-20T10:37:21.736Z,26.80
2019-04-20T10:39:29.048Z,27.80
2019-04-20T10:41:44.615Z,27.70
2019-04-20T10:43:42.869Z,28.40
2019-04-20T10:45:48.870Z,27.80
2019-04-20T10:47:56.896Z,27.30
2019-04-20T10:50:03.168Z,26.80
2019-04-20T10:52:09.733Z,26.80
2019-04-20T10:54:16.399Z,25.70
2019-04-20T10:56:23.209Z,24.90
2019-04-20T10:58:29.577Z,25.90
2019-04-20T11:00:41.955Z,25.40
2019-04-20T11:02:49.205Z,24.80
2019-04-20T11:04:54.879Z,23.00
2019-04-20T11:07:00.819Z,25.30
2019-04-20T11:09:08.918Z,25.90
2019-04-20T11:11:22.599Z,26.00
2019-04-20T11:13:23.431Z,24.40
2019-04-20T11:15:30.396Z,23.80
2019-04-20T11:17:37.149Z,22.80
2019-04-20T11:19:43.352Z,24.30
2019-04-20T11:21:52.401Z,23.10
2019-04-20T11:23:58.423Z,23.30
2019-04-20T11:26:04.383Z,24.60
2019-04-20T11:28:10.246Z,22.70
2019-04-20T11:30:16.281Z,23.20
2019-04-20T11:32:22.209Z,22.50
2019-04-20T11:34:32.953Z,22.00
2019-04-20T11:36:35.053Z,22.10
2019-04-20T11:38:40.770Z,21.70
2019-04-20T11:40:48.247Z,23.00
2019-04-20T11:42:53.636Z,21.50
2019-04-20T11:45:00.176Z,23.30
2019-04-20T11:47:08.355Z,22.30
2019-04-20T11:49:15.396Z,23.00
2019-04-20T11:51:21.541Z,22.50
2019-04-20T11:53:28.602Z,22.80
2019-04-20T11:55:34.244Z,22.40
2019-04-20T11:57:39.915Z,22.80
2019-04-20T11:59:45.451Z,25.50
2019-04-20T12:01:59.040Z,24.40
2019-04-20T12:04:09.271Z,24.30
2019-04-20T12:06:08.727Z,24.30
2019-04-20T12:08:14.467Z,25.90
2019-04-20T12:10:24.013Z,25.70
2019-04-20T12:12:37.131Z,24.90
2019-04-20T12:14:36.823Z,25.30
2019-04-20T12:16:43.729Z,25.80
2019-04-20T12:18:50.408Z,26.00
2019-04-20T12:20:56.716Z,25.80
2019-04-20T12:23:02.539Z,25.80
2019-04-20T12:25:08.148Z,24.60
2019-04-20T12:27:14.647Z,25.40
2019-04-20T12:29:21.615Z,25.80
2019-04-20T12:31:27.710Z,25.90
2019-04-20T12:33:34.472Z,26.30
2019-04-20T12:35:40.385Z,25.50
2019-04-20T12:37:47.231Z,24.80
2019-04-20T12:39:53.295Z,24.40
2019-04-20T12:42:03.901Z,25.40
2019-04-20T12:44:06.181Z,23.80
2019-04-20T12:46:14.932Z,24.10
2019-04-20T12:48:19.752Z,24.50
2019-04-20T12:50:27.648Z,24.50
2019-04-20T12:52:34.570Z,25.20
2019-04-20T12:54:42.657Z,25.10
2019-04-20T12:56:48.663Z,24.10
2019-04-20T12:58:55.517Z,22.70
2019-04-20T13:01:02.595Z,19.80
2019-04-20T13:03:09.534Z,22.30
2019-04-20T13:05:15.594Z,25.30
2019-04-20T13:07:22.766Z,24.50
2019-04-20T13:09:32.522Z,24.30
2019-04-20T13:11:50.357Z,23.70
2019-04-20T13:14:04.199Z,23.30
2019-04-20T13:16:14.327Z,23.40
2019-04-20T13:18:30.612Z,25.00
2019-04-20T13:20:36.471Z,24.20
2019-04-20T13:22:44.146Z,23.00
2019-04-20T13:24:50.315Z,23.50
2019-04-20T13:26:55.903Z,25.10
2019-04-20T13:29:02.332Z,24.40
2019-04-20T13:31:08.178Z,23.70
2019-04-20T13:33:14.190Z,24.80
2019-04-20T13:35:22.414Z,25.00
2019-04-20T13:37:28.515Z,24.70
2019-04-20T13:39:35.095Z,24.80
2019-04-20T13:41:41.786Z,26.10
2019-04-20T13:43:48.072Z,25.40
2019-04-20T13:45:53.588Z,25.80
2019-04-20T13:47:59.190Z,25.00
2019-04-20T13:50:07.265Z,24.40
2019-04-20T13:52:15.040Z,25.80
2019-04-20T13:54:24.087Z,25.70
2019-04-20T13:56:28.132Z,25.20
2019-04-20T13:58:40.950Z,25.20
2019-04-20T14:00:50.314Z,25.50
2019-04-20T14:03:00.623Z,23.20
2019-04-20T14:05:06.817Z,25.50
2019-04-20T14:07:15.245Z,26.80
2019-04-20T14:09:19.773Z,27.10
2019-04-20T14:11:25.283Z,27.50
2019-04-20T14:13:38.131Z,27.40
2019-04-20T14:15:38.135Z,27.60
2019-04-20T14:17:43.728Z,26.60
2019-04-20T14:19:50.427Z,25.10
2019-04-20T14:21:56.489Z,25.40
2019-04-20T14:24:04.165Z,24.70
2019-04-20T14:26:09.454Z,26.40
2019-04-20T14:28:15.386Z,26.90
2019-04-20T14:30:22.279Z,26.90
2019-04-20T14:32:28.883Z,27.60
2019-04-20T14:34:35.229Z,27.70
2019-04-20T14:36:41.220Z,27.30
2019-04-20T14:38:48.174Z,27.40
2019-04-20T14:40:54.543Z,27.40
2019-04-20T14:43:01.668Z,26.80
2019-04-20T14:45:08.932Z,28.20
2019-04-20T14:47:15.752Z,27.20
2019-04-20T14:49:22.884Z,28.30
2019-04-20T14:51:29.751Z,28.00
2019-04-20T14:53:35.660Z,27.80
2019-04-20T14:55:41.677Z,28.00
2019-04-20T14:57:47.749Z,27.80
2019-04-20T14:59:55.905Z,28.00
2019-04-20T15:02:03.203Z,27.70
2019-04-20T15:04:13.306Z,27.80
2019-04-20T15:06:15.977Z,28.60
2019-04-20T15:08:23.141Z,28.30
2019-04-20T15:10:30.960Z,27.80
2019-04-20T15:12:47.344Z,28.00
2019-04-20T15:14:44.916Z,28.00
2019-04-20T15:16:50.951Z,28.10
2019-04-20T15:18:59.889Z,28.10
2019-04-20T15:21:07.268Z,27.60
2019-04-20T15:23:15.201Z,27.60
2019-04-20T15:25:21.322Z,27.80
2019-04-20T15:27:28.151Z,26.90
2019-04-20T15:29:33.845Z,27.70
2019-04-20T15:31:39.493Z,28.10
2019-04-20T15:33:45.296Z,26.80
2019-04-20T15:35:52.400Z,27.90
2019-04-20T15:37:59.400Z,27.10
2019-04-20T15:40:06.467Z,27.10
2019-04-20T15:42:12.193Z,27.40
2019-04-20T15:44:19.480Z,27.20
2019-04-20T15:46:25.579Z,27.20
2019-04-20T15:48:32.181Z,26.80
2019-04-20T15:50:38.226Z,26.60
2019-04-20T15:52:50.509Z,26.70
2019-04-20T15:54:51.820Z,26.50
2019-04-20T15:57:02.361Z,26.80
2019-04-20T15:59:06.255Z,26.80
2019-04-20T16:01:20.541Z,26.20
2019-04-20T16:03:27.897Z,25.90
2019-04-20T16:05:37.804Z,26.60
2019-04-20T16:07:49.882Z,25.70
2019-04-20T16:09:51.652Z,25.70
2019-04-20T16:11:57.364Z,25.70
2019-04-20T16:14:03.601Z,25.70
2019-04-20T16:16:10.200Z,26.60
2019-04-20T16:18:16.739Z,25.70
2019-04-20T16:20:23.955Z,26.40
2019-04-20T16:22:31.246Z,26.60
2019-04-20T16:24:38.454Z,25.60
2019-04-20T16:26:55.742Z,25.70
2019-04-20T16:29:01.837Z,25.60
2019-04-20T16:31:10.021Z,25.90
2019-04-20T16:33:14.791Z,26.60
2019-04-20T16:35:20.452Z,26.30
2019-04-20T16:37:26.454Z,26.30
2019-04-20T16:39:32.381Z,26.30
2019-04-20T16:41:38.311Z,25.90
2019-04-20T16:43:46.419Z,26.00
2019-04-20T16:45:52.968Z,24.90
2019-04-20T16:48:01.529Z,25.40
2019-04-20T16:50:08.749Z,25.20
2019-04-20T16:52:16.825Z,25.80
2019-04-20T16:54:23.679Z,25.60
2019-04-20T16:56:30.787Z,25.50
2019-04-20T16:58:37.624Z,25.40
2019-04-20T17:00:43.445Z,25.50
2019-04-20T17:02:50.099Z,25.50
2019-04-20T17:04:56.955Z,26.10
2019-04-20T17:07:16.573Z,26.40
2019-04-20T17:09:22.434Z,25.90
2019-04-20T17:11:28.100Z,26.30
2019-04-20T17:13:40.517Z,26.70
2019-04-20T17:15:43.895Z,25.30
2019-04-20T17:17:51.496Z,24.80
2019-04-20T17:19:57.685Z,24.90
2019-04-20T17:22:05.407Z,23.50
2019-04-20T17:24:11.360Z,25.00
2019-04-20T17:26:18.888Z,24.80
2019-04-20T17:28:29.163Z,25.30
2019-04-20T17:30:52.910Z,25.20
2019-04-20T17:33:13.863Z,25.30
2019-04-20T17:35:36.972Z,25.40
2019-04-20T17:37:33.732Z,25.30
2019-04-20T17:39:55.466Z,26.30
2019-04-20T17:42:00.441Z,26.80
2019-04-20T17:44:09.920Z,26.30
2019-04-20T17:46:08.152Z,26.80
2019-04-20T17:48:18.806Z,26.40
2019-04-20T17:50:31.814Z,26.80
2019-04-20T17:52:42.707Z,27.20
2019-04-20T17:54:31.707Z,27.20
2019-04-20T17:56:38.772Z,27.50
2019-04-20T17:58:44.333Z,27.70
2019-04-20T18:00:58.542Z,27.90
2019-04-20T18:03:40.225Z,28.00
2019-04-20T18:05:58.103Z,28.00
2019-04-20T18:08:08.100Z,28.60
2019-04-20T18:10:11.402Z,28.40
2019-04-20T18:12:03.326Z,28.70
2019-04-20T18:14:25.178Z,29.10
2019-04-20T18:16:40.296Z,28.90
2019-04-20T18:18:42.022Z,29.10
2019-04-20T18:20:43.041Z,29.30
2019-04-20T18:22:54.836Z,29.40
2019-04-20T18:25:19.277Z,29.80
2019-04-20T18:27:27.828Z,29.90
2019-04-20T18:29:32.642Z,30.30
2019-04-20T18:31:39.602Z,30.70
2019-04-20T18:33:46.499Z,30.00
2019-04-20T18:35:52.271Z,30.70
2019-04-20T18:38:02.572Z,30.70
2019-04-20T18:40:11.393Z,31.30
2019-04-20T18:42:21.279Z,31.40
2019-04-20T18:44:27.830Z,31.40
2019-04-20T18:46:55.535Z,31.40
2019-04-20T18:48:54.616Z,31.70
2019-04-20T18:50:46.944Z,32.70
2019-04-20T18:52:51.742Z,32.20
2019-04-20T18:54:57.617Z,32.10
2019-04-20T18:57:06.930Z,32.40
2019-04-20T18:59:11.748Z,32.80
2019-04-20T19:01:17.416Z,33.80
2019-04-20T19:03:27.734Z,33.80
2019-04-20T19:05:31.539Z,33.90
2019-04-20T19:07:42.510Z,34.80
2019-04-20T19:09:44.914Z,35.10
2019-04-20T19:11:57.176Z,35.40
2019-04-20T19:14:15.885Z,35.10
2019-04-20T19:16:24.797Z,35.70
2019-04-20T19:18:52.052Z,35.20
2019-04-20T19:20:46.444Z,35.80
2019-04-20T19:22:52.749Z,36.00
2019-04-20T19:24:58.315Z,37.70
2019-04-20T19:27:08.843Z,38.00
2019-04-20T19:29:22.137Z,38.60
2019-04-20T19:31:36.742Z,39.20
2019-04-20T19:33:40.219Z,39.90
2019-04-20T19:35:41.666Z,40.90
2019-04-20T19:37:51.652Z,40.40
2019-04-20T19:40:02.803Z,40.70
2019-04-20T19:42:08.631Z,40.60
2019-04-20T19:44:13.504Z,39.90
2019-04-20T19:46:45.139Z,40.40
2019-04-20T19:48:28.287Z,40.10
2019-04-20T19:50:53.556Z,40.60
2019-04-20T19:52:58.281Z,40.90
2019-04-20T19:54:56.786Z,41.30
2019-04-20T19:57:01.379Z,41.70
2019-04-20T19:59:08.998Z,41.80
2019-04-20T20:01:03.238Z,41.60
2019-04-20T20:03:09.964Z,42.40
2019-04-20T20:05:17.750Z,42.40
2019-04-20T20:07:32.136Z,42.60
2019-04-20T20:09:32.411Z,42.50
2019-04-20T20:11:42.333Z,42.80
2019-04-20T20:13:51.359Z,43.90
2019-04-20T20:15:57.445Z,44.00
2019-04-20T20:18:19.689Z,44.20
2019-04-20T20:20:30.365Z,44.50
2019-04-20T20:22:26.745Z,44.80
2019-04-20T20:24:23.145Z,45.20
2019-04-20T20:26:35.197Z,44.90
2019-04-20T20:28:43.693Z,45.20
2019-04-20T20:30:56.830Z,45.90
2019-04-20T20:33:04.827Z,46.10
2019-04-20T20:35:07.198Z,46.70
2019-04-20T20:37:09.628Z,47.20
2019-04-20T20:39:21.237Z,47.00
2019-04-20T20:41:28.298Z,47.90
2019-04-20T20:43:42.386Z,48.30
2019-04-20T20:45:44.135Z,48.20
2019-04-20T20:48:06.202Z,48.10
2019-04-20T20:50:25.618Z,49.00
2019-04-20T20:52:17.400Z,48.50
2019-04-20T20:54:22.434Z,49.40
2019-04-20T20:56:22.613Z,49.60
2019-04-20T20:58:37.461Z,50.40
2019-04-20T21:00:38.859Z,51.20
2019-04-20T21:02:47.145Z,51.60
2019-04-20T21:04:45.815Z,51.50
2019-04-20T21:06:52.709Z,51.40
2019-04-20T21:09:01.359Z,51.50
2019-04-20T21:11:13.139Z,51.70
2019-04-20T21:13:15.555Z,51.10
2019-04-20T21:15:24.160Z,51.30
2019-04-20T21:17:40.753Z,52.00
2019-04-20T21:19:53.367Z,51.80
2019-04-20T21:21:50.509Z,52.20
2019-04-20T21:23:59.757Z,51.80
2019-04-20T21:26:12.657Z,52.30
2019-04-20T21:28:15.178Z,52.70
2019-04-20T21:30:31.051Z,52.80
2019-04-20T21:32:28.194Z,53.20
2019-04-20T21:34:35.356Z,53.60
2019-04-20T21:36:43.188Z,52.80
2019-04-20T21:38:50.150Z,52.80
2019-04-20T21:41:03.407Z,53.40
2019-04-20T21:43:06.992Z,54.70
2019-04-20T21:45:20.000Z,53.90
2019-04-20T21:47:24.733Z,53.50
2019-04-20T21:49:38.838Z,54.20
2019-04-20T21:51:44.139Z,54.50
2019-04-20T21:53:40.720Z,54.00
2019-04-20T21:55:47.975Z,54.70
2019-04-20T21:57:58.379Z,55.50
2019-04-20T22:00:10.079Z,55.50
2019-04-20T22:02:16.966Z,55.90
2019-04-20T22:04:19.973Z,55.90
2019-04-20T22:06:24.851Z,56.30
2019-04-20T22:08:32.569Z,56.90
2019-04-20T22:10:38.682Z,57.30
2019-04-20T22:12:50.506Z,57.20
2019-04-20T22:15:00.077Z,57.70
2019-04-20T22:17:01.817Z,57.80
2019-04-20T22:19:22.506Z,58.00
2019-04-20T22:21:22.768Z,58.20
2019-04-20T22:23:40.350Z,58.50
2019-04-20T22:25:43.766Z,58.90
2019-04-20T22:27:37.110Z,59.10
2019-04-20T22:29:43.965Z,59.40
2019-04-20T22:31:56.515Z,59.70
2019-04-20T22:34:00.850Z,59.90
2019-04-20T22:36:07.868Z,59.60
2019-04-20T22:38:15.829Z,59.50
2019-04-20T22:40:25.072Z,59.80
2019-04-20T22:42:31.301Z,59.50
2019-04-20T22:44:36.376Z,59.60
2019-04-20T22:46:43.779Z,60.20
2019-04-20T22:48:59.541Z,60.40
2019-04-20T22:51:14.209Z,60.70
2019-04-20T22:53:21.314Z,61.30
2019-04-20T22:55:36.536Z,61.80
2019-04-20T22:57:31.624Z,62.20
2019-04-20T22:59:38.492Z,62.50
2019-04-20T23:01:40.815Z,63.20
2019-04-20T23:03:41.101Z,63.30
2019-04-20T23:05:47.047Z,63.50
2019-04-20T23:07:52.778Z,63.50
2019-04-20T23:10:00.159Z,64.00
2019-04-20T23:12:11.204Z,63.60
2019-04-20T23:14:14.329Z,64.20
2019-04-20T23:16:20.968Z,64.40
2019-04-20T23:18:26.629Z,65.20
2019-04-20T23:20:35.784Z,65.50
2019-04-20T23:22:44.167Z,65.70
2019-04-20T23:24:47.181Z,66.00
2019-04-20T23:26:53.157Z,66.30
2019-04-20T23:29:00.820Z,66.60
2019-04-20T23:31:11.679Z,66.70
2019-04-20T23:33:14.034Z,68.30
2019-04-20T23:35:22.933Z,68.70
2019-04-20T23:37:31.189Z,68.80
2019-04-20T23:39:36.429Z,69.30
2019-04-20T23:41:42.635Z,69.70
2019-04-20T23:43:55.662Z,70.10
2019-04-20T23:46:10.753Z,70.20
2019-04-20T23:48:22.785Z,70.60
2019-04-20T23:50:40.813Z,71.10
2019-04-20T23:52:53.861Z,71.50
2019-04-20T23:54:48.998Z,72.60
2019-04-20T23:56:48.000Z,73.10
2019-04-20T23:58:56.723Z,74.10
